createdAt,value
2023-04-18T00:00:42.375Z,98674.47
2023-04-18T00:03:08.967Z,98679.97
2023-04-18T00:05:35.560Z,98678.50
2023-04-18T00:08:02.369Z,98673.53
2023-04-18T00:10:28.629Z,98677.13
2023-04-18T00:12:55.010Z,98672.66
2023-04-18T00:15:21.346Z,98664.88
2023-04-18T00:17:47.689Z,98656.09
2023-04-18T00:20:14.205Z,98665.69
2023-04-18T00:22:41.644Z,98661.75
2023-04-18T00:25:09.062Z,98673.47
2023-04-18T00:27:35.819Z,98659.19
2023-04-18T00:30:02.188Z,98652.31
2023-04-18T00:32:28.566Z,98650.50
2023-04-18T00:34:54.980Z,98653.53
2023-04-18T00:37:21.248Z,98649.69
2023-04-18T00:39:47.543Z,98648.41
2023-04-18T00:42:13.834Z,98652.72
2023-04-18T00:44:40.107Z,98648.78
2023-04-18T00:47:06.407Z,98649.41
2023-04-18T00:49:32.984Z,98646.19
2023-04-18T00:51:59.462Z,98647.22
2023-04-18T00:54:26.912Z,98647.66
2023-04-18T00:56:53.703Z,98649.78
2023-04-18T00:59:20.843Z,98652.44
2023-04-18T01:01:47.217Z,98641.25
2023-04-18T01:04:13.958Z,98637.16
2023-04-18T01:06:41.048Z,98641.44
2023-04-18T01:09:07.410Z,98641.25
2023-04-18T01:11:33.700Z,98636.16
2023-04-18T01:14:04.828Z,98636.59
2023-04-18T01:16:31.933Z,98634.31
2023-04-18T01:18:59.514Z,98633.69
2023-04-18T01:21:25.907Z,98634.69
2023-04-18T01:23:59.583Z,98633.41
2023-04-18T01:26:25.913Z,98623.50
2023-04-18T01:28:52.192Z,98622.22
2023-04-18T01:31:18.617Z,98631.19
2023-04-18T01:33:44.950Z,98623.78
2023-04-18T01:36:11.273Z,98632.19
2023-04-18T01:38:37.737Z,98622.97
2023-04-18T01:41:04.048Z,98629.72
2023-04-18T01:43:30.368Z,98625.34
2023-04-18T01:45:56.619Z,98625.34
2023-04-18T01:48:22.895Z,98627.00
2023-04-18T01:50:49.261Z,98627.47
2023-04-18T01:53:15.655Z,98625.34
2023-04-18T01:55:41.930Z,98619.31
2023-04-18T01:58:08.428Z,98624.06
2023-04-18T02:00:34.783Z,98610.53
2023-04-18T02:03:01.212Z,98614.19
2023-04-18T02:05:27.710Z,98611.16
2023-04-18T02:07:54.104Z,98619.38
2023-04-18T02:10:20.702Z,98622.03
2023-04-18T02:12:47.078Z,98612.25
2023-04-18T02:15:13.485Z,98621.84
2023-04-18T02:17:39.786Z,98617.03
2023-04-18T02:20:06.578Z,98620.16
2023-04-18T02:22:32.908Z,98613.47
2023-04-18T02:24:59.207Z,98624.72
2023-04-18T02:27:25.480Z,98618.03
2023-04-18T02:29:51.877Z,98624.16
2023-04-18T02:32:18.171Z,98618.47
2023-04-18T02:34:44.457Z,98618.47
2023-04-18T02:37:10.844Z,98621.78
2023-04-18T02:39:37.129Z,98624.63
2023-04-18T02:42:03.478Z,98620.03
2023-04-18T02:44:29.776Z,98618.47
2023-04-18T02:46:56.053Z,98628.28
2023-04-18T02:49:22.380Z,98632.88
2023-04-18T02:51:48.632Z,98628.00
2023-04-18T02:54:15.248Z,98620.88
2023-04-18T02:56:41.713Z,98626.56
2023-04-18T02:59:08.436Z,98621.44
2023-04-18T03:01:34.821Z,98621.06
2023-04-18T03:04:01.133Z,98625.63
2023-04-18T03:06:27.432Z,98624.88
2023-04-18T03:08:55.013Z,98629.56
2023-04-18T03:11:21.219Z,98628.72
2023-04-18T03:13:47.549Z,98629.72
2023-04-18T03:16:13.919Z,98625.44
2023-04-18T03:18:40.208Z,98622.97
2023-04-18T03:21:06.598Z,98626.25
2023-04-18T03:23:32.995Z,98619.94
2023-04-18T03:25:59.585Z,98622.16
2023-04-18T03:28:25.857Z,98619.03
2023-04-18T03:30:52.149Z,98622.72
2023-04-18T03:33:18.531Z,98620.94
2023-04-18T03:35:44.924Z,98616.47
2023-04-18T03:38:11.235Z,98615.56
2023-04-18T03:40:37.549Z,98614.94
2023-04-18T03:43:03.965Z,98616.59
2023-04-18T03:45:30.254Z,98622.53
2023-04-18T03:47:56.752Z,98614.56
2023-04-18T03:50:23.082Z,98627.09
2023-04-18T03:52:49.426Z,98618.19
2023-04-18T03:55:15.970Z,98619.50
2023-04-18T03:57:42.246Z,98624.13
2023-04-18T04:00:09.231Z,98621.84
2023-04-18T04:02:35.814Z,98624.50
2023-04-18T04:05:02.314Z,98613.63
2023-04-18T04:07:28.709Z,98615.28
2023-04-18T04:09:54.976Z,98624.44
2023-04-18T04:12:21.285Z,98623.78
2023-04-18T04:14:47.587Z,98633.13
2023-04-18T04:17:14.072Z,98640.47
2023-04-18T04:19:40.323Z,98635.78
2023-04-18T04:22:06.638Z,98643.75
2023-04-18T04:24:33.006Z,98641.34
2023-04-18T04:27:00.391Z,98645.66
2023-04-18T04:29:27.794Z,98649.03
2023-04-18T04:31:54.292Z,98654.53
2023-04-18T04:34:20.580Z,98651.50
2023-04-18T04:36:47.307Z,98658.47
2023-04-18T04:39:14.633Z,98657.16
2023-04-18T04:41:40.910Z,98659.75
2023-04-18T04:44:07.202Z,98651.31
2023-04-18T04:46:33.540Z,98655.78
2023-04-18T04:49:00.466Z,98660.53
2023-04-18T04:51:26.815Z,98662.56
2023-04-18T04:53:53.319Z,98660.16
2023-04-18T04:56:19.682Z,98651.91
2023-04-18T04:58:46.035Z,98659.31
2023-04-18T05:01:12.452Z,98651.16
2023-04-18T05:03:39.055Z,98660.59
2023-04-18T05:06:05.825Z,98663.50
2023-04-18T05:08:32.103Z,98665.00
2023-04-18T05:10:58.487Z,98662.41
2023-04-18T05:13:24.782Z,98664.47
2023-04-18T05:15:51.064Z,98662.41
2023-04-18T05:18:17.415Z,98665.31
2023-04-18T05:20:43.868Z,98659.81
2023-04-18T05:23:10.187Z,98674.44
2023-04-18T05:25:36.721Z,98668.56
2023-04-18T05:28:03.098Z,98673.94
2023-04-18T05:30:29.426Z,98670.91
2023-04-18T05:32:55.815Z,98663.78
2023-04-18T05:35:22.285Z,98665.91
2023-04-18T05:37:48.615Z,98671.50
2023-04-18T05:40:15.011Z,98667.63
2023-04-18T05:42:41.314Z,98673.38
2023-04-18T05:45:08.246Z,98673.09
2023-04-18T05:47:34.550Z,98670.47
2023-04-18T05:50:00.901Z,98665.53
2023-04-18T05:52:27.197Z,98676.81
2023-04-18T05:54:53.496Z,98667.22
2023-04-18T05:57:19.823Z,98675.41
2023-04-18T05:59:46.236Z,98679.94
2023-04-18T06:02:12.644Z,98669.63
2023-04-18T06:04:42.756Z,98680.34
2023-04-18T06:07:09.419Z,98682.41
2023-04-18T06:09:35.932Z,98675.94
2023-04-18T06:12:02.270Z,98684.78
2023-04-18T06:14:28.723Z,98691.53
2023-04-18T06:16:55.109Z,98686.38
2023-04-18T06:19:21.487Z,98689.69
2023-04-18T06:21:48.794Z,98696.53
2023-04-18T06:24:15.404Z,98698.84
2023-04-18T06:26:42.178Z,98694.81
2023-04-18T06:29:08.452Z,98694.09
2023-04-18T06:31:34.796Z,98690.31
2023-04-18T06:34:01.095Z,98688.09
2023-04-18T06:36:27.457Z,98692.03
2023-04-18T06:38:53.731Z,98688.19
2023-04-18T06:41:20.048Z,98693.75
2023-04-18T06:43:59.755Z,98693.81
2023-04-18T06:46:29.920Z,98692.81
2023-04-18T06:48:56.348Z,98693.09
2023-04-18T06:51:22.652Z,98694.78
2023-04-18T06:53:48.931Z,98693.38
2023-04-18T06:56:15.260Z,98703.41
2023-04-18T06:58:41.542Z,98709.97
2023-04-18T07:01:07.854Z,98703.63
2023-04-18T07:03:34.221Z,98701.16
2023-04-18T07:06:00.749Z,98701.94
2023-04-18T07:08:27.063Z,98707.47
2023-04-18T07:10:53.337Z,98700.72
2023-04-18T07:13:19.776Z,98701.97
2023-04-18T07:15:46.107Z,98700.31
2023-04-18T07:18:14.532Z,98709.38
2023-04-18T07:20:44.463Z,98700.94
2023-04-18T07:23:10.756Z,98718.59
2023-04-18T07:25:37.743Z,98715.88
2023-04-18T07:28:04.243Z,98707.63
2023-04-18T07:30:30.537Z,98718.31
2023-04-18T07:32:56.937Z,98710.75
2023-04-18T07:35:23.279Z,98710.38
2023-04-18T07:37:49.672Z,98711.59
2023-04-18T07:40:15.943Z,98715.75
2023-04-18T07:42:42.307Z,98714.72
2023-04-18T07:45:08.868Z,98713.66
2023-04-18T07:47:35.189Z,98714.88
2023-04-18T07:50:02.023Z,98714.88
2023-04-18T07:52:28.321Z,98716.50
2023-04-18T07:54:54.597Z,98719.53
2023-04-18T07:57:20.948Z,98716.59
2023-04-18T07:59:47.237Z,98716.22
2023-04-18T08:02:13.592Z,98728.94
2023-04-18T08:04:40.128Z,98720.88
2023-04-18T08:07:06.592Z,98710.16
2023-04-18T08:09:33.001Z,98706.69
2023-04-18T08:11:59.548Z,98714.44
2023-04-18T08:14:25.901Z,98716.69
2023-04-18T08:16:52.289Z,98717.19
2023-04-18T08:19:18.685Z,98716.66
2023-04-18T08:21:44.956Z,98720.47
2023-04-18T08:24:11.318Z,98720.00
2023-04-18T08:26:37.633Z,98729.16
2023-04-18T08:29:03.933Z,98724.47
2023-04-18T08:31:30.265Z,98728.66
2023-04-18T08:33:56.590Z,98722.03
2023-04-18T08:36:22.907Z,98720.09
2023-04-18T08:38:49.266Z,98717.22
2023-04-18T08:41:21.422Z,98717.84
2023-04-18T08:43:48.478Z,98724.63
2023-04-18T08:46:14.911Z,98715.47
2023-04-18T08:48:41.322Z,98720.03
2023-04-18T08:51:07.678Z,98721.38
2023-04-18T08:53:34.062Z,98727.03
2023-04-18T08:56:00.536Z,98732.06
2023-04-18T08:58:26.935Z,98733.03
2023-04-18T09:00:54.448Z,98727.25
2023-04-18T09:03:38.572Z,98731.56
2023-04-18T09:06:10.205Z,98729.44
2023-04-18T09:08:36.552Z,98723.66
2023-04-18T09:11:21.213Z,98726.50
2023-04-18T09:13:47.498Z,98725.75
2023-04-18T09:16:13.874Z,98720.09
2023-04-18T09:18:40.274Z,98719.41
2023-04-18T09:21:19.355Z,98723.38
2023-04-18T09:23:45.665Z,98714.81
2023-04-18T09:26:12.058Z,98708.69
2023-04-18T09:28:38.468Z,98701.63
2023-04-18T09:31:10.626Z,98710.94
2023-04-18T09:33:38.121Z,98709.78
2023-04-18T09:36:17.432Z,98715.84
2023-04-18T09:38:44.370Z,98710.13
2023-04-18T09:41:11.929Z,98712.66
2023-04-18T09:43:38.812Z,98715.94
2023-04-18T09:46:05.652Z,98713.03
2023-04-18T09:48:31.982Z,98716.16
2023-04-18T09:51:01.277Z,98716.09
2023-04-18T09:53:28.590Z,98715.47
2023-04-18T09:55:57.487Z,98713.56
2023-04-18T09:58:25.678Z,98717.06
2023-04-18T10:00:54.081Z,98723.81
2023-04-18T10:03:25.198Z,98715.41
2023-04-18T10:05:52.255Z,98717.19
2023-04-18T10:08:18.721Z,98721.06
2023-04-18T10:10:45.029Z,98720.22
2023-04-18T10:13:13.709Z,98731.47
2023-04-18T10:15:42.319Z,98714.88
2023-04-18T10:18:14.767Z,98717.56
2023-04-18T10:20:41.850Z,98720.84
2023-04-18T10:23:28.250Z,98720.16
2023-04-18T10:25:54.583Z,98723.13
2023-04-18T10:28:21.022Z,98712.88
2023-04-18T10:30:47.287Z,98702.88
2023-04-18T10:33:30.973Z,98704.25
2023-04-18T10:36:08.968Z,98694.16
2023-04-18T10:38:36.835Z,98698.06
2023-04-18T10:41:19.966Z,98698.44
2023-04-18T10:44:21.177Z,98701.94
2023-04-18T10:46:50.452Z,98688.41
2023-04-18T10:49:26.846Z,98682.44
2023-04-18T10:51:59.034Z,98690.50
2023-04-18T10:54:51.752Z,98689.69
2023-04-18T10:57:18.099Z,98684.91
2023-04-18T10:59:48.742Z,98679.34
2023-04-18T11:02:26.497Z,98681.69
2023-04-18T11:04:54.674Z,98680.16
2023-04-18T11:07:38.797Z,98673.75
2023-04-18T11:10:06.853Z,98664.06
2023-04-18T11:12:36.262Z,98672.91
2023-04-18T11:15:23.498Z,98671.47
2023-04-18T11:18:01.771Z,98670.06
2023-04-18T11:20:58.349Z,98665.78
2023-04-18T11:23:24.629Z,98661.47
2023-04-18T11:25:51.146Z,98662.22
2023-04-18T11:28:21.758Z,98665.03
2023-04-18T11:30:48.144Z,98660.31
2023-04-18T11:33:14.694Z,98667.81
2023-04-18T11:35:45.119Z,98660.00
2023-04-18T11:38:13.448Z,98667.53
2023-04-18T11:40:47.067Z,98663.13
2023-04-18T11:43:20.959Z,98657.78
2023-04-18T11:45:52.188Z,98655.19
2023-04-18T11:48:18.609Z,98658.00
2023-04-18T11:50:44.882Z,98660.00
2023-04-18T11:53:11.282Z,98663.09
2023-04-18T11:55:37.604Z,98663.72
2023-04-18T11:58:03.959Z,98661.47
2023-04-18T12:00:34.234Z,98665.88
2023-04-18T12:03:02.935Z,98664.47
2023-04-18T12:05:31.784Z,98666.34
2023-04-18T12:08:10.832Z,98662.19
2023-04-18T12:10:38.260Z,98658.56
2023-04-18T12:13:08.397Z,98660.56
2023-04-18T12:15:39.076Z,98656.91
2023-04-18T12:18:05.814Z,98664.88
2023-04-18T12:20:39.250Z,98648.44
2023-04-18T12:23:06.152Z,98656.19
2023-04-18T12:25:32.757Z,98649.63
2023-04-18T12:28:02.221Z,98645.25
2023-04-18T12:30:31.074Z,98639.50
2023-04-18T12:32:59.817Z,98639.75
2023-04-18T12:35:26.574Z,98635.69
2023-04-18T12:37:54.533Z,98635.31
2023-04-18T12:40:22.486Z,98637.88
2023-04-18T12:42:50.110Z,98643.97
2023-04-18T12:45:17.422Z,98643.13
2023-04-18T12:47:44.925Z,98645.13
2023-04-18T12:50:16.155Z,98646.25
2023-04-18T12:52:42.546Z,98649.00
2023-04-18T12:55:09.582Z,98645.88
2023-04-18T12:57:36.294Z,98642.97
2023-04-18T13:00:03.849Z,98637.56
2023-04-18T13:02:30.338Z,98653.69
2023-04-18T13:04:56.928Z,98652.28
2023-04-18T13:07:23.338Z,98645.25
2023-04-18T13:09:49.756Z,98642.81
2023-04-18T13:12:16.060Z,98641.31
2023-04-18T13:14:42.686Z,98641.94
2023-04-18T13:17:09.304Z,98647.88
2023-04-18T13:19:35.578Z,98646.13
2023-04-18T13:22:02.107Z,98646.19
2023-04-18T13:24:28.601Z,98650.75
2023-04-18T13:26:55.130Z,98643.38
2023-04-18T13:29:21.557Z,98647.09
2023-04-18T13:31:47.886Z,98642.81
2023-04-18T13:34:14.207Z,98641.56
2023-04-18T13:36:40.511Z,98642.16
2023-04-18T13:39:07.639Z,98641.63
2023-04-18T13:41:33.937Z,98645.00
2023-04-18T13:44:00.212Z,98636.53
2023-04-18T13:46:26.609Z,98643.44
2023-04-18T13:48:53.203Z,98642.53
2023-04-18T13:51:19.528Z,98636.63
2023-04-18T13:53:45.847Z,98636.50
2023-04-18T13:56:12.250Z,98641.25
2023-04-18T13:58:38.526Z,98642.72
2023-04-18T14:01:05.158Z,98635.03
2023-04-18T14:03:31.615Z,98636.75
2023-04-18T14:05:58.199Z,98656.44
2023-04-18T14:08:24.784Z,98640.56
2023-04-18T14:10:51.052Z,98644.38
2023-04-18T14:13:17.378Z,98647.59
2023-04-18T14:15:43.704Z,98650.94
2023-04-18T14:18:10.059Z,98646.31
2023-04-18T14:20:36.409Z,98648.81
2023-04-18T14:23:02.713Z,98656.56
2023-04-18T14:25:29.638Z,98667.47
2023-04-18T14:28:06.889Z,98661.78
2023-04-18T14:30:33.140Z,98666.59
2023-04-18T14:32:59.421Z,98664.94
2023-04-18T14:35:26.012Z,98664.72
2023-04-18T14:37:52.376Z,98654.75
2023-04-18T14:40:19.060Z,98663.25
2023-04-18T14:42:45.357Z,98665.88
2023-04-18T14:45:11.759Z,98664.19
2023-04-18T14:47:38.069Z,98660.91
2023-04-18T14:50:06.529Z,98668.56
2023-04-18T14:52:32.831Z,98661.19
2023-04-18T14:54:59.135Z,98663.34
2023-04-18T14:57:26.233Z,98664.19
2023-04-18T14:59:52.597Z,98669.13
2023-04-18T15:02:18.965Z,98667.75
2023-04-18T15:04:45.559Z,98660.31
2023-04-18T15:07:11.990Z,98666.72
2023-04-18T15:09:38.340Z,98669.38
2023-04-18T15:12:05.931Z,98670.47
2023-04-18T15:14:33.052Z,98662.72
2023-04-18T15:16:59.614Z,98672.50
2023-04-18T15:19:27.777Z,98679.59
2023-04-18T15:21:54.101Z,98667.44
2023-04-18T15:24:20.401Z,98666.00
2023-04-18T15:26:46.688Z,98682.22
2023-04-18T15:29:12.988Z,98672.63
2023-04-18T15:31:39.438Z,98671.28
2023-04-18T15:34:06.991Z,98673.78
2023-04-18T15:36:33.820Z,98678.34
2023-04-18T15:39:00.206Z,98685.53
2023-04-18T15:41:26.610Z,98681.59
2023-04-18T15:43:52.907Z,98678.34
2023-04-18T15:46:19.202Z,98681.63
2023-04-18T15:48:45.517Z,98676.41
2023-04-18T15:51:11.886Z,98679.63
2023-04-18T15:53:38.188Z,98681.09
2023-04-18T15:56:04.613Z,98691.03
2023-04-18T15:58:31.027Z,98695.34
2023-04-18T16:00:57.521Z,98684.28
2023-04-18T16:03:24.179Z,98686.34
2023-04-18T16:05:51.312Z,98691.09
2023-04-18T16:08:17.688Z,98688.66
2023-04-18T16:10:44.041Z,98690.28
2023-04-18T16:13:10.421Z,98695.50
2023-04-18T16:15:36.745Z,98691.44
2023-04-18T16:18:03.107Z,98691.47
2023-04-18T16:20:29.439Z,98699.13
2023-04-18T16:22:55.712Z,98704.28
2023-04-18T16:25:22.095Z,98705.09
2023-04-18T16:27:48.406Z,98702.88
2023-04-18T16:30:14.803Z,98705.34
2023-04-18T16:32:41.115Z,98706.41
2023-04-18T16:35:08.620Z,98707.44
2023-04-18T16:37:34.840Z,98706.88
2023-04-18T16:40:01.241Z,98715.91
2023-04-18T16:42:27.709Z,98712.03
2023-04-18T16:44:54.014Z,98714.91
2023-04-18T16:47:20.315Z,98716.75
2023-04-18T16:49:46.727Z,98723.13
2023-04-18T16:52:13.789Z,98725.38
2023-04-18T16:54:40.731Z,98723.53
2023-04-18T16:57:07.166Z,98728.66
2023-04-18T16:59:33.467Z,98716.16
2023-04-18T17:01:59.892Z,98722.91
2023-04-18T17:04:26.362Z,98726.59
2023-04-18T17:06:53.380Z,98735.44
2023-04-18T17:09:19.808Z,98733.59
2023-04-18T17:11:46.185Z,98739.13
2023-04-18T17:14:13.073Z,98742.22
2023-04-18T17:16:41.288Z,98744.69
2023-04-18T17:19:08.646Z,98747.16
2023-04-18T17:21:35.698Z,98743.44
2023-04-18T17:24:02.872Z,98746.53
2023-04-18T17:26:33.544Z,98746.53
2023-04-18T17:29:00.450Z,98748.16
2023-04-18T17:31:27.124Z,98758.22
2023-04-18T17:33:53.547Z,98754.53
2023-04-18T17:36:20.195Z,98754.69
2023-04-18T17:38:46.494Z,98756.34
2023-04-18T17:41:12.761Z,98758.19
2023-04-18T17:43:39.260Z,98747.50
2023-04-18T17:46:05.645Z,98761.88
2023-04-18T17:48:31.952Z,98753.25
2023-04-18T17:50:58.311Z,98764.28
2023-04-18T17:53:24.705Z,98763.47
2023-04-18T17:55:51.104Z,98761.81
2023-04-18T17:58:20.935Z,98770.00
2023-04-18T18:00:47.971Z,98771.41
2023-04-18T18:03:15.134Z,98772.06
2023-04-18T18:05:42.177Z,98780.06
2023-04-18T18:08:08.512Z,98774.91
2023-04-18T18:10:34.978Z,98775.13
2023-04-18T18:13:01.398Z,98789.25
2023-04-18T18:15:27.788Z,98778.94
2023-04-18T18:17:54.101Z,98785.91
2023-04-18T18:20:20.410Z,98791.88
2023-04-18T18:22:47.138Z,98790.63
2023-04-18T18:25:13.670Z,98806.19
2023-04-18T18:27:39.982Z,98801.25
2023-04-18T18:30:07.250Z,98801.88
2023-04-18T18:32:33.676Z,98803.53
2023-04-18T18:35:00.009Z,98808.22
2023-04-18T18:37:26.306Z,98805.75
2023-04-18T18:39:55.864Z,98808.78
2023-04-18T18:42:22.477Z,98808.00
2023-04-18T18:44:48.763Z,98810.91
2023-04-18T18:47:17.321Z,98815.81
2023-04-18T18:49:43.806Z,98808.59
2023-04-18T18:52:10.091Z,98822.75
2023-04-18T18:54:36.465Z,98821.94
2023-04-18T18:57:02.762Z,98817.03
2023-04-18T18:59:29.667Z,98822.50
2023-04-18T19:01:56.095Z,98823.31
2023-04-18T19:04:22.607Z,98834.97
2023-04-18T19:06:49.017Z,98839.47
2023-04-18T19:09:15.510Z,98842.13
2023-04-18T19:11:41.926Z,98830.06
2023-04-18T19:14:08.260Z,98845.03
2023-04-18T19:16:34.858Z,98837.22
2023-04-18T19:19:01.435Z,98845.03
2023-04-18T19:21:27.786Z,98842.59
2023-04-18T19:23:54.092Z,98838.69
2023-04-18T19:26:20.369Z,98850.94
2023-04-18T19:28:46.683Z,98844.22
2023-04-18T19:31:13.015Z,98850.97
2023-04-18T19:33:39.391Z,98843.63
2023-04-18T19:36:05.753Z,98843.88
2023-04-18T19:38:32.065Z,98846.16
2023-04-18T19:40:58.444Z,98849.78
2023-04-18T19:43:24.793Z,98851.97
2023-04-18T19:45:52.070Z,98852.16
2023-04-18T19:48:19.579Z,98856.44
2023-04-18T19:50:45.918Z,98858.72
2023-04-18T19:53:12.234Z,98856.44
2023-04-18T19:55:38.564Z,98858.22
2023-04-18T19:58:04.924Z,98856.28
2023-04-18T20:00:31.202Z,98864.88
2023-04-18T20:02:57.582Z,98858.44
2023-04-18T20:05:24.266Z,98865.25
2023-04-18T20:07:50.606Z,98858.75
2023-04-18T20:10:20.078Z,98861.28
2023-04-18T20:12:48.193Z,98860.84
2023-04-18T20:15:15.855Z,98854.25
2023-04-18T20:17:42.193Z,98852.22
2023-04-18T20:20:08.721Z,98865.34
2023-04-18T20:22:35.034Z,98855.72
2023-04-18T20:25:01.351Z,98861.22
2023-04-18T20:27:27.630Z,98852.56
2023-04-18T20:29:56.081Z,98861.13
2023-04-18T20:32:23.485Z,98856.69
2023-04-18T20:34:49.773Z,98863.84
2023-04-18T20:37:16.129Z,98860.38
2023-04-18T20:39:42.416Z,98863.41
2023-04-18T20:42:08.727Z,98858.53
2023-04-18T20:44:35.170Z,98854.34
2023-04-18T20:47:01.523Z,98861.88
2023-04-18T20:49:27.813Z,98858.16
2023-04-18T20:51:54.108Z,98855.06
2023-04-18T20:54:20.413Z,98852.16
2023-04-18T20:56:46.710Z,98853.22
2023-04-18T20:59:13.115Z,98854.28
2023-04-18T21:01:39.461Z,98854.88
2023-04-18T21:04:05.984Z,98860.16
2023-04-18T21:06:32.423Z,98861.31
2023-04-18T21:08:58.708Z,98857.66
2023-04-18T21:11:25.002Z,98859.47
2023-04-18T21:13:51.489Z,98860.16
2023-04-18T21:16:17.814Z,98860.31
2023-04-18T21:18:44.207Z,98859.47
2023-04-18T21:21:10.605Z,98858.03
2023-04-18T21:23:44.147Z,98854.97
2023-04-18T21:26:11.337Z,98849.41
2023-04-18T21:28:56.388Z,98850.25
2023-04-18T21:31:23.594Z,98855.75
2023-04-18T21:33:54.091Z,98849.22
2023-04-18T21:36:20.410Z,98851.88
2023-04-18T21:38:46.902Z,98849.84
2023-04-18T21:41:16.460Z,98848.22
2023-04-18T21:43:43.480Z,98844.34
2023-04-18T21:46:10.580Z,98850.94
2023-04-18T21:48:41.189Z,98854.69
2023-04-18T21:51:08.936Z,98856.72
2023-04-18T21:53:35.434Z,98852.22
2023-04-18T21:56:01.712Z,98847.72
2023-04-18T21:58:28.177Z,98845.69
2023-04-18T22:00:54.483Z,98853.16
2023-04-18T22:03:21.062Z,98847.66
2023-04-18T22:05:47.487Z,98843.59
2023-04-18T22:08:14.268Z,98849.84
2023-04-18T22:10:40.656Z,98845.34
2023-04-18T22:13:07.056Z,98842.69
2023-04-18T22:15:33.750Z,98840.50
2023-04-18T22:18:00.106Z,98841.75
2023-04-18T22:20:26.667Z,98835.59
2023-04-18T22:22:55.950Z,98843.50
2023-04-18T22:25:22.257Z,98836.31
2023-04-18T22:27:48.589Z,98835.03
2023-04-18T22:30:15.042Z,98831.75
2023-04-18T22:32:41.370Z,98836.63
2023-04-18T22:35:08.389Z,98836.84
2023-04-18T22:37:34.667Z,98833.34
2023-04-18T22:40:01.039Z,98838.47
2023-04-18T22:42:28.030Z,98839.50
2023-04-18T22:44:55.692Z,98831.06
2023-04-18T22:47:22.028Z,98832.53
2023-04-18T22:49:48.357Z,98837.47
2023-04-18T22:52:15.006Z,98836.59
2023-04-18T22:54:41.727Z,98841.53
2023-04-18T22:57:08.127Z,98839.28
2023-04-18T22:59:34.595Z,98838.72
2023-04-18T23:02:01.255Z,98836.25
2023-04-18T23:04:28.042Z,98831.50
2023-04-18T23:06:54.392Z,98835.44
2023-04-18T23:09:20.797Z,98838.28
2023-04-18T23:11:47.260Z,98842.97
2023-04-18T23:14:13.713Z,98831.19
2023-04-18T23:16:41.979Z,98838.78
2023-04-18T23:19:09.727Z,98837.31
2023-04-18T23:21:36.076Z,98834.84
2023-04-18T23:24:02.385Z,98834.41
2023-04-18T23:26:28.689Z,98833.16
2023-04-18T23:28:55.014Z,98830.31
2023-04-18T23:31:21.462Z,98831.75
2023-04-18T23:33:47.869Z,98832.31
2023-04-18T23:36:14.205Z,98833.16
2023-04-18T23:38:40.919Z,98825.59
2023-04-18T23:41:07.280Z,98827.63
2023-04-18T23:43:34.308Z,98821.06
2023-04-18T23:46:00.909Z,98816.31
2023-04-18T23:48:27.307Z,98821.78
2023-04-18T23:50:54.130Z,98818.88
2023-04-18T23:53:21.441Z,98818.59
2023-04-18T23:55:50.595Z,98819.28
2023-04-18T23:58:17.378Z,98813.56
